Aérodrome :
LOGIN :

S'inscrire | Disclaimer

   EN    FR    IT 

 










Légende :    VFR   VFR Marginal   IFR   IFR Intensif   IFR Très Intensif
Visi : 
Plafond : 
>= 8 km
>= 3000ft
5 à 8 km
1000 à 3000 ft
1500m à 5 km
500 à 1000 ft
800 à 1500m
200 à 500 ft
< 800m
< 200 ft
Symboles :   Orages  Brouillard  Fortes neiges  Fortes précipitations  Vent > 20 kt
SIGMETs :   Divers  Orages  Givrage  Turbulence  Onde Orograph.  Cendres Volcan.







- Altitude de l'aérodrome : 404 ft
- Code IATA : WRO


EPWR - Wroclaw

DERNIER METAR :
  • 131800Z 15011KT CAVOK 01/M04 Q1008

METARs EXPIRÉS :
  • 131730Z 16011KT CAVOK 01/M04 Q1008
  • 131700Z 16007KT CAVOK 00/M04 Q1009
  • 131630Z 16008KT CAVOK 00/M04 Q1009
  • 131600Z 15007KT CAVOK M01/M04 Q1010
  • 131530Z 16006KT CAVOK 01/M04 Q1011

TAF TAF EPWR
Valide du 13 à 18h jusqu'au 14 à 18h UTC


131730Z 1318/1418 16010KT CAVOK
TEMPO 1320/1407 18015G25KT
PROB40
TEMPO 1402/1407 18018G35KT 4000 RA RASN BKN014
BECMG 1407/1409 24015G25KT
PROB40
TEMPO 1407/1416 24018G35KT 4000 SHRA SHGS BKN020CB
Pas de NOTAMs connus pour ce terrain.



MET'MAP, la Météo Aéronautique d'un coup d'oeil ! - Copyright ORBIFLY Décembre 2007 - Disclaimer

ORBIFLY MET'MAP TEAM :

Programmation & Développement : Alexandra Zaïnal
Conception & Développement : Baudouin d'Aumeries
Co-Programmation & Développement : Marc-Olivier Méhu
Soutien technique & logistique : Manuel Goepfert

Contact : metmap@orbifly.com




SOURCES & CREDITS :

   NOAA